Terminal Aerodrome Forecast
Issued by NWS Cleveland, OH

Home | Current Version | Previous Version | Text Only | Print | Product List | Glossary On
Versions: 1 2 3 4 5 6 7 8 9 10 11 12 13 14 15 16 17 18
266
FTUS41 KCLE 161740
TAFERI
TAF
KERI 161740Z 1618/1718 27008KT 3SM -SHSN OVC015
      TEMPO 1618/1622 1SM -SHSN OVC010
     FM162300 25007KT P6SM VCSH BKN045
     FM170300 23007KT P6SM VCSH BKN025
     FM170500 22008KT P6SM OVC035
     FM171700 24011G20KT P6SM OVC035=

USA.gov is the U.S. government's official web portal to all federal, state and local government web resources and services.